CheckWX is a tool to help pilots better visualize weather data.  It is not intended as a substitute for an official pre-flight weather briefing.

18:35:44 UTC

CYAY METAR
Saint Anthony Airport
St. Anthony, Canada
Current

36 mins ago

CYAY 261800Z AUTO 23015KT 9SM BKN030 BKN037 M11/M15 A2985 RMK ICG SLP114
Observed
Mar-26 @ 18:00 UTC
Wind
  • 230° at 15 KTS
Visibility
9 SM
Flight Rules
MVFR
Cloud Levels
  • Broken at 3,000' AGL
  • Broken at 3,700' AGL
Temperature
-11°C / 12°F
Dewpoint
-15°C / 5°F
Humidity
73%
Altimeter
29.85" Hg
Pressure
1011.4 hPa
Previous

1 hour ago

CYAY 261731Z AUTO 23015KT 9SM BKN037 OVC044 M11/M16 A2986 RMK ICG SLP115
Observed
Mar-26 @ 17:31 UTC
Wind
  • 230° at 15 KTS
Visibility
9 SM
Flight Rules
VFR
Cloud Levels
  • Broken at 3,700' AGL
  • Overcast at 4,400' AGL
Temperature
-11°C / 12°F
Dewpoint
-16°C / 3°F
Humidity
67%
Altimeter
29.86" Hg
Pressure
1011.5 hPa
Previous

1 hour ago

CYAY 261717Z AUTO 22013G18KT 8SM -SN FEW025 OVC037 M12/M15 A2987 RMK ICG INTMT SLP118
Observed
Mar-26 @ 17:17 UTC
Wind
  • 220° at 13 KTS
  • Gusting to 18 KTS
Visibility
8 SM
Flight Rules
VFR
Conditions
Light Snow
Cloud Levels
  • Few at 2,500' AGL
  • Overcast at 3,700' AGL
Temperature
-12°C / 10°F
Dewpoint
-15°C / 5°F
Humidity
79%
Altimeter
29.87" Hg
Pressure
1011.8 hPa